Annamoriah, WV

6:06 AM EDT on May 28, 2015 (GMT -0400)
Reedy, WV | | Change Station
CLOSE
Current Station
Personal Weather Station
Location: Reedy, WV
Elevation: 750 ft
Nearby Weather Stations

Elev 750 ft 38.89 °N, 81.40 °W | Updated 1 minute ago

Partly Cloudy
Partly Cloudy
60.8 °F
Feels Like 60.8 °F
N
0.0
Wind Variable Wind from North
Gusts 0.0 mph

Today
High -- | Low -- °F
--% Chance of Precip.
Yesterday
High -- | Low -- °F
Precip. -- in
6:03 AM 8:41 PM
Waxing Gibbous, 74% visible
Pressure 30.20 in
Visibility 10.0 miles
Clouds Clear
Dew Point 59 °F
Humidity 95%
Rainfall 0.00 in
Snow Depth Not available.
UV 0 out of 12
Pollen 1.10 out of 12
Air Quality Not available.
Flu Activity Sporadic
METAR KPKB 280953Z AUTO 00000KT 10SM CLR 17/15 A3021 RMK AO2 SLP226 T01720150

More Conditions Fewer Conditions

Pressure 30.20 in
Visibility 10.0 miles
Clouds Clear
Dew Point 59 °F
Humidity 95%
Rainfall 0.00 in
Snow Depth Not available.
UV 0 out of 12
Pollen 1.10 out of 12
Air Quality Not available.
Flu Activity Sporadic
METAR KPKB 280953Z AUTO 00000KT 10SM CLR 17/15 A3021 RMK AO2 SLP226 T01720150

More Conditions Fewer Conditions

10-Day Weather Forecast

Almanac

Astronomy

May. 28, 2015 Rise Set
Actual Time
Civil Twilight
Nautical Twilight
Astronomical Twilight
Moon
Length of Visible Light
Length of Day
Tomorrow will be .
, % of the Moon is Illuminated

Today's Extremes

State Highs State Lows

Community

WunderPhotos

Upload Photos

1,824,935 photos uploaded!

WunderBlogs® & News

Nearby

Air Quality

  Air Quality AQ Index Pollutant
Not available.

Snow Depth

Station Depth Elevation

Earthquake Activity

City Distance Mag. Time & Date
Minimum magnitude displayed is 2.5.

Coastal Water Temperatures

Place Temperature

Stations

Nearby Weather Stations

Station Location Temp. Windchill Dew Point Humidity Wind Precip. Elev Updated Type